createdAt,value
2023-02-07T00:02:02.717Z,-11.20
2023-02-07T00:04:32.881Z,-11.30
2023-02-07T00:07:02.981Z,-11.40
2023-02-07T00:09:34.741Z,-11.50
2023-02-07T00:12:04.848Z,-11.40
2023-02-07T00:14:35.019Z,-11.50
2023-02-07T00:17:05.804Z,-11.60
2023-02-07T00:19:36.153Z,-11.70
2023-02-07T00:22:06.208Z,-11.80
2023-02-07T00:24:38.128Z,-11.90
2023-02-07T00:27:08.489Z,-11.90
2023-02-07T00:29:38.881Z,-12.00
2023-02-07T00:32:09.024Z,-12.20
2023-02-07T00:34:39.315Z,-12.30
2023-02-07T00:37:09.447Z,-12.50
2023-02-07T00:39:41.191Z,-12.70
2023-02-07T00:42:11.279Z,-12.80
2023-02-07T00:44:41.742Z,-12.90
2023-02-07T00:47:11.856Z,-13.10
2023-02-07T00:49:42.562Z,-13.20
2023-02-07T00:52:12.611Z,-13.30
2023-02-07T00:54:44.361Z,-13.30
2023-02-07T00:57:14.474Z,-13.40
2023-02-07T00:59:44.813Z,-13.40
2023-02-07T01:02:15.088Z,-13.40
2023-02-07T01:04:45.340Z,-13.40
2023-02-07T01:07:15.972Z,-13.30
2023-02-07T01:09:47.689Z,-13.40
2023-02-07T01:12:17.754Z,-13.40
2023-02-07T01:14:47.916Z,-13.20
2023-02-07T01:17:18.296Z,-13.00
2023-02-07T01:19:48.401Z,-12.70
2023-02-07T01:22:18.728Z,-12.60
2023-02-07T01:24:50.484Z,-12.70
2023-02-07T01:30:00.842Z,-12.90
2023-02-07T01:32:30.975Z,-13.10
2023-02-07T01:35:01.243Z,-13.20
2023-02-07T01:37:31.356Z,-13.30
2023-02-07T01:40:01.483Z,-13.30
2023-02-07T01:42:32.422Z,-13.30
2023-02-07T01:45:18.319Z,-13.30
2023-02-07T01:47:48.695Z,-13.30
2023-02-07T01:50:19.468Z,-13.40
2023-02-07T01:52:50.146Z,-13.40
2023-02-07T01:55:25.760Z,-13.30
2023-02-07T01:57:55.950Z,-13.50
2023-02-07T02:00:27.983Z,-13.60
2023-02-07T02:02:58.302Z,-13.70
2023-02-07T02:05:28.677Z,-13.70
2023-02-07T02:07:59.028Z,-13.80
2023-02-07T02:10:44.646Z,-13.90
2023-02-07T02:13:25.607Z,-13.90
2023-02-07T02:16:07.163Z,-13.80
2023-02-07T02:18:47.009Z,-13.90
2023-02-07T02:21:49.988Z,-14.00
2023-02-07T02:25:16.419Z,-13.90
2023-02-07T02:28:18.143Z,-13.80
2023-02-07T02:31:22.213Z,-14.00
2023-02-07T02:33:58.599Z,-14.20
2023-02-07T02:36:36.569Z,-14.10
2023-02-07T02:39:15.063Z,-14.20
2023-02-07T02:41:56.966Z,-14.20
2023-02-07T02:44:32.660Z,-14.20
2023-02-07T02:47:03.694Z,-14.20
2023-02-07T02:49:37.295Z,-14.40
2023-02-07T02:52:08.483Z,-14.50
2023-02-07T02:54:40.141Z,-14.60
2023-02-07T02:57:31.492Z,-14.80
2023-02-07T03:00:24.675Z,-14.90
2023-02-07T03:03:04.088Z,-15.00
2023-02-07T03:05:48.879Z,-15.10
2023-02-07T03:08:33.436Z,-15.20
2023-02-07T03:11:09.852Z,-15.30
2023-02-07T03:13:50.223Z,-15.40
2023-02-07T03:16:25.054Z,-15.50
2023-02-07T03:19:02.997Z,-15.60
2023-02-07T03:21:40.199Z,-15.70
2023-02-07T03:24:16.162Z,-15.70
2023-02-07T03:26:49.009Z,-15.70
2023-02-07T03:29:21.964Z,-15.80
2023-02-07T03:31:55.507Z,-15.80
2023-02-07T03:34:29.803Z,-15.70
2023-02-07T03:37:06.911Z,-15.60
2023-02-07T03:39:37.212Z,-15.60
2023-02-07T03:42:12.792Z,-15.70
2023-02-07T03:44:44.509Z,-15.70
2023-02-07T03:47:14.615Z,-15.70
2023-02-07T03:49:44.695Z,-15.80
2023-02-07T03:52:16.392Z,-15.80
2023-02-07T03:54:46.503Z,-15.80
2023-02-07T03:57:16.846Z,-15.80
2023-02-07T03:59:46.956Z,-15.60
2023-02-07T04:02:17.177Z,-15.60
2023-02-07T04:04:47.342Z,-15.70
2023-02-07T04:07:19.320Z,-15.70
2023-02-07T04:09:49.439Z,-15.70
2023-02-07T04:12:19.582Z,-15.60
2023-02-07T04:14:49.694Z,-15.30
2023-02-07T04:17:19.823Z,-15.20
2023-02-07T04:19:49.924Z,-15.20
2023-02-07T04:22:21.671Z,-15.10
2023-02-07T04:24:51.946Z,-15.00
2023-02-07T04:27:22.304Z,-15.00
2023-02-07T04:29:52.972Z,-14.90
2023-02-07T04:32:23.406Z,-14.90
2023-02-07T04:34:53.749Z,-15.00
2023-02-07T04:37:25.453Z,-15.10
2023-02-07T04:39:55.505Z,-15.20
2023-02-07T04:42:25.673Z,-15.40
2023-02-07T04:44:55.892Z,-15.50
2023-02-07T04:47:26.288Z,-15.60
2023-02-07T04:49:56.384Z,-15.60
2023-02-07T04:52:28.178Z,-15.80
2023-02-07T04:54:58.406Z,-15.80
2023-02-07T04:57:28.750Z,-15.90
2023-02-07T04:59:58.811Z,-15.90
2023-02-07T05:02:29.284Z,-15.80
2023-02-07T05:04:59.594Z,-15.80
2023-02-07T05:07:31.716Z,-15.80
2023-02-07T05:10:01.821Z,-15.80
2023-02-07T05:12:31.940Z,-15.90
2023-02-07T05:15:02.226Z,-15.90
2023-02-07T05:17:35.503Z,-16.00
2023-02-07T05:20:05.686Z,-16.00
2023-02-07T05:22:37.620Z,-16.10
2023-02-07T05:25:08.160Z,-16.10
2023-02-07T05:27:38.924Z,-16.20
2023-02-07T05:30:10.257Z,-16.20
2023-02-07T05:32:57.171Z,-16.20
2023-02-07T05:35:27.266Z,-16.30
2023-02-07T05:37:58.963Z,-16.30
2023-02-07T05:40:29.346Z,-16.20
2023-02-07T05:42:59.544Z,-16.30
2023-02-07T05:45:29.771Z,-16.40
2023-02-07T05:48:00.041Z,-16.40
2023-02-07T05:50:30.477Z,-16.40
2023-02-07T05:53:02.549Z,-16.30
2023-02-07T05:55:32.627Z,-16.30
2023-02-07T05:58:02.872Z,-16.30
2023-02-07T06:00:32.977Z,-16.40
2023-02-07T06:03:03.166Z,-16.50
2023-02-07T06:05:33.858Z,-16.50
2023-02-07T06:08:05.932Z,-16.50
2023-02-07T06:10:36.226Z,-16.50
2023-02-07T06:13:06.368Z,-16.60
2023-02-07T06:15:36.713Z,-16.60
2023-02-07T06:18:07.148Z,-16.60
2023-02-07T06:20:37.238Z,-16.60
2023-02-07T06:23:09.253Z,-16.70
2023-02-07T06:25:39.481Z,-16.70
2023-02-07T06:28:10.367Z,-16.70
2023-02-07T06:30:40.676Z,-16.70
2023-02-07T06:33:10.786Z,-16.80
2023-02-07T06:35:47.701Z,-16.90
2023-02-07T06:38:20.366Z,-17.00
2023-02-07T06:40:51.372Z,-17.00
2023-02-07T06:43:21.832Z,-17.00
2023-02-07T06:45:52.028Z,-17.00
2023-02-07T06:48:22.173Z,-17.00
2023-02-07T06:50:53.396Z,-17.00
2023-02-07T06:53:25.235Z,-17.00
2023-02-07T06:55:55.491Z,-17.00
2023-02-07T06:58:25.642Z,-17.10
2023-02-07T07:00:55.746Z,-17.10
2023-02-07T07:03:29.456Z,-17.10
2023-02-07T07:06:00.374Z,-17.20
2023-02-07T07:08:32.449Z,-17.20
2023-02-07T07:11:02.530Z,-17.20
2023-02-07T07:13:32.701Z,-17.20
2023-02-07T07:16:02.808Z,-17.20
2023-02-07T07:18:33.126Z,-17.20
2023-02-07T07:21:03.216Z,-17.30
2023-02-07T07:23:35.166Z,-17.30
2023-02-07T07:26:05.414Z,-17.40
2023-02-07T07:28:35.984Z,-17.30
2023-02-07T07:31:07.606Z,-17.10
2023-02-07T07:33:38.236Z,-16.80
2023-02-07T07:36:09.999Z,-16.40
2023-02-07T07:38:44.637Z,-16.20
2023-02-07T07:41:17.689Z,-15.90
2023-02-07T07:43:48.165Z,-15.70
2023-02-07T07:46:18.282Z,-15.70
2023-02-07T07:48:48.474Z,-15.70
2023-02-07T07:51:18.796Z,-15.70
2023-02-07T07:53:50.944Z,-15.60
2023-02-07T07:56:21.099Z,-15.40
2023-02-07T07:58:51.368Z,-15.20
2023-02-07T08:01:21.441Z,-15.10
2023-02-07T08:03:51.923Z,-14.90
2023-02-07T08:06:22.445Z,-14.80
2023-02-07T08:08:54.163Z,-14.90
2023-02-07T08:11:24.394Z,-14.90
2023-02-07T08:13:54.530Z,-14.90
2023-02-07T08:16:24.686Z,-14.80
2023-02-07T08:18:54.827Z,-14.90
2023-02-07T08:21:27.310Z,-14.90
2023-02-07T08:23:59.032Z,-14.90
2023-02-07T08:26:29.141Z,-14.90
2023-02-07T08:28:59.883Z,-15.00
2023-02-07T08:31:30.369Z,-15.20
2023-02-07T08:34:00.596Z,-15.30
2023-02-07T08:36:30.688Z,-15.50
2023-02-07T08:39:02.403Z,-15.50
2023-02-07T08:41:32.465Z,-15.70
2023-02-07T08:44:02.563Z,-15.90
2023-02-07T08:46:32.931Z,-15.90
2023-02-07T08:49:03.145Z,-16.10
2023-02-07T08:51:33.296Z,-16.10
2023-02-07T08:54:05.002Z,-16.20
2023-02-07T08:56:35.183Z,-16.20
2023-02-07T08:59:05.622Z,-16.20
2023-02-07T09:01:36.036Z,-16.10
2023-02-07T09:04:06.414Z,-16.00
2023-02-07T09:06:36.489Z,-15.80
2023-02-07T09:09:08.639Z,-15.70
2023-02-07T09:11:38.924Z,-15.70
2023-02-07T09:14:09.162Z,-15.60
2023-02-07T09:16:39.704Z,-15.50
2023-02-07T09:19:09.974Z,-15.30
2023-02-07T09:21:40.065Z,-15.30
2023-02-07T09:24:11.858Z,-15.10
2023-02-07T09:26:42.103Z,-14.80
2023-02-07T09:29:15.926Z,-14.70
2023-02-07T09:31:47.038Z,-14.60
2023-02-07T09:34:17.424Z,-14.40
2023-02-07T09:36:47.694Z,-14.20
2023-02-07T09:39:20.523Z,-14.00
2023-02-07T09:42:00.113Z,-14.00
2023-02-07T09:44:40.981Z,-14.00
2023-02-07T09:47:16.294Z,-14.10
2023-02-07T09:49:48.710Z,-14.20
2023-02-07T09:52:23.334Z,-14.10
2023-02-07T09:54:57.141Z,-14.00
2023-02-07T09:57:32.504Z,-14.00
2023-02-07T10:00:05.049Z,-13.90
2023-02-07T10:02:40.851Z,-14.00
2023-02-07T10:05:18.925Z,-13.90
2023-02-07T10:07:50.333Z,-14.00
2023-02-07T10:10:34.369Z,-14.00
2023-02-07T10:13:37.807Z,-14.00
2023-02-07T10:16:21.940Z,-13.80
2023-02-07T10:18:58.131Z,-13.70
2023-02-07T10:21:37.024Z,-13.50
2023-02-07T10:24:33.440Z,-13.50
2023-02-07T10:27:12.831Z,-13.50
2023-02-07T10:29:58.651Z,-13.50
2023-02-07T10:32:31.069Z,-13.50
2023-02-07T10:35:03.970Z,-13.60
2023-02-07T10:37:40.056Z,-13.70
2023-02-07T10:40:16.972Z,-13.60
2023-02-07T10:42:51.895Z,-13.70
2023-02-07T10:45:22.851Z,-13.70
2023-02-07T10:47:53.106Z,-13.70
2023-02-07T10:50:41.612Z,-13.60
2023-02-07T10:53:12.148Z,-13.60
2023-02-07T10:55:46.428Z,-13.80
2023-02-07T10:58:23.899Z,-13.90
2023-02-07T11:00:55.898Z,-14.10
2023-02-07T11:03:27.558Z,-14.10
2023-02-07T11:06:00.303Z,-14.30
2023-02-07T11:08:31.884Z,-14.30
2023-02-07T11:11:18.913Z,-14.40
2023-02-07T11:13:52.892Z,-14.30
2023-02-07T11:16:25.198Z,-14.30
2023-02-07T11:19:00.162Z,-14.30
2023-02-07T11:21:32.735Z,-14.30
2023-02-07T11:24:06.646Z,-14.40
2023-02-07T11:26:41.612Z,-14.50
2023-02-07T11:29:18.233Z,-14.40
2023-02-07T11:31:50.788Z,-14.30
2023-02-07T11:34:49.200Z,-14.30
2023-02-07T11:37:26.620Z,-14.20
2023-02-07T11:39:58.255Z,-14.40
2023-02-07T11:42:33.314Z,-14.30
2023-02-07T11:45:15.517Z,-14.30
2023-02-07T11:47:49.229Z,-14.20
2023-02-07T11:50:22.794Z,-14.20
2023-02-07T11:52:58.276Z,-14.20
2023-02-07T11:55:33.345Z,-14.30
2023-02-07T11:58:10.380Z,-14.30
2023-02-07T12:00:43.720Z,-14.30
2023-02-07T12:03:24.872Z,-14.20
2023-02-07T12:05:57.977Z,-14.30
2023-02-07T12:08:31.081Z,-14.30
2023-02-07T12:11:04.242Z,-14.40
2023-02-07T12:13:39.393Z,-14.30
2023-02-07T12:16:43.753Z,-14.50
2023-02-07T12:19:19.786Z,-14.50
2023-02-07T12:21:59.491Z,-14.60
2023-02-07T12:24:36.379Z,-14.80
2023-02-07T12:27:14.818Z,-14.90
2023-02-07T12:30:00.290Z,-15.10
2023-02-07T12:32:43.202Z,-15.00
2023-02-07T12:35:20.850Z,-14.90
2023-02-07T12:37:57.961Z,-14.90
2023-02-07T12:40:33.934Z,-14.70
2023-02-07T12:43:09.648Z,-14.50
2023-02-07T12:45:56.845Z,-14.60
2023-02-07T12:48:40.536Z,-14.60
2023-02-07T12:51:20.220Z,-14.50
2023-02-07T12:54:10.727Z,-14.30
2023-02-07T12:56:52.809Z,-14.20
2023-02-07T12:59:34.765Z,-14.20
2023-02-07T13:02:21.179Z,-14.30
2023-02-07T13:05:21.373Z,-14.20
2023-02-07T13:08:00.044Z,-14.10
2023-02-07T13:10:39.383Z,-14.10
2023-02-07T13:13:19.656Z,-13.90
2023-02-07T13:15:55.511Z,-13.90
2023-02-07T13:18:34.914Z,-13.80
2023-02-07T13:21:17.216Z,-13.50
2023-02-07T13:23:50.756Z,-13.40
2023-02-07T13:26:25.593Z,-13.30
2023-02-07T13:28:59.198Z,-13.20
2023-02-07T13:31:38.061Z,-13.10
2023-02-07T13:34:14.739Z,-12.90
2023-02-07T13:36:49.725Z,-12.80
2023-02-07T13:39:42.234Z,-12.70
2023-02-07T13:42:25.479Z,-12.60
2023-02-07T13:45:02.147Z,-12.40
2023-02-07T13:47:51.580Z,-12.20
2023-02-07T13:50:40.893Z,-12.10
2023-02-07T13:53:29.537Z,-12.00
2023-02-07T13:56:05.849Z,-11.80
2023-02-07T13:59:14.094Z,-11.70
2023-02-07T14:01:52.479Z,-11.50
2023-02-07T14:04:24.176Z,-11.30
2023-02-07T14:07:09.280Z,-11.20
2023-02-07T14:09:43.875Z,-11.00
2023-02-07T14:12:24.181Z,-10.90
2023-02-07T14:15:02.690Z,-10.80
2023-02-07T14:18:00.363Z,-10.90
2023-02-07T14:20:49.900Z,-11.00
2023-02-07T14:23:21.473Z,-11.00
2023-02-07T14:25:55.008Z,-10.90
2023-02-07T14:28:36.726Z,-10.90
2023-02-07T14:31:26.958Z,-10.80
2023-02-07T14:34:14.578Z,-10.80
2023-02-07T14:36:45.127Z,-10.80
2023-02-07T14:39:32.056Z,-10.80
2023-02-07T14:42:19.292Z,-10.70
2023-02-07T14:44:52.200Z,-10.70
2023-02-07T14:47:25.969Z,-10.80
2023-02-07T14:49:59.057Z,-10.70
2023-02-07T14:52:32.456Z,-10.70
2023-02-07T14:55:05.063Z,-10.60
2023-02-07T14:57:45.899Z,-10.50
2023-02-07T15:00:29.232Z,-10.40
2023-02-07T15:03:03.682Z,-10.40
2023-02-07T15:05:35.566Z,-10.20
2023-02-07T15:08:12.194Z,-10.20
2023-02-07T15:10:46.329Z,-10.10
2023-02-07T15:13:28.533Z,-10.10
2023-02-07T15:16:01.032Z,-10.00
2023-02-07T15:18:34.744Z,-9.90
2023-02-07T15:21:05.326Z,-9.90
2023-02-07T15:23:36.090Z,-9.80
2023-02-07T15:26:09.921Z,-9.70
2023-02-07T15:28:41.786Z,-9.60
2023-02-07T15:31:16.230Z,-9.40
2023-02-07T15:33:54.589Z,-9.20
2023-02-07T15:36:35.993Z,-8.90
2023-02-07T15:39:09.018Z,-8.50
2023-02-07T15:41:39.082Z,-8.10
2023-02-07T15:44:22.641Z,-7.90
2023-02-07T15:46:55.666Z,-7.40
2023-02-07T15:49:37.716Z,-6.80
2023-02-07T15:52:17.395Z,-6.50
2023-02-07T15:54:50.582Z,-6.60
2023-02-07T15:57:27.139Z,-6.20
2023-02-07T16:00:03.680Z,-6.00
2023-02-07T16:02:36.396Z,-5.70
2023-02-07T16:05:12.027Z,-5.50
2023-02-07T16:07:43.108Z,-5.20
2023-02-07T16:10:22.019Z,-5.10
2023-02-07T16:12:55.997Z,-4.90
2023-02-07T16:15:33.055Z,-4.50
2023-02-07T16:18:04.462Z,-4.20
2023-02-07T16:20:37.626Z,-3.90
2023-02-07T16:23:11.822Z,-4.20
2023-02-07T16:25:43.916Z,-4.20
2023-02-07T16:28:18.273Z,-4.00
2023-02-07T16:30:50.423Z,-4.20
2023-02-07T16:33:20.423Z,-4.40
2023-02-07T16:35:50.684Z,-4.80
2023-02-07T16:38:20.779Z,-5.00
2023-02-07T16:40:52.057Z,-5.20
2023-02-07T16:43:36.610Z,-5.20
2023-02-07T16:46:09.287Z,-5.10
2023-02-07T16:48:39.381Z,-5.10
2023-02-07T16:51:09.584Z,-4.80
2023-02-07T16:53:39.846Z,-4.90
2023-02-07T16:56:13.303Z,-5.30
2023-02-07T16:58:43.489Z,-5.50
2023-02-07T17:01:20.340Z,-5.50
2023-02-07T17:03:50.562Z,-5.40
2023-02-07T17:06:22.201Z,-5.00
2023-02-07T17:08:54.533Z,-5.10
2023-02-07T17:11:27.092Z,-5.10
2023-02-07T17:13:58.384Z,-4.90
2023-02-07T17:16:30.681Z,-5.10
2023-02-07T17:19:02.123Z,-5.20
2023-02-07T17:21:32.191Z,-5.50
2023-02-07T17:24:02.330Z,-5.30
2023-02-07T17:26:33.536Z,-5.20
2023-02-07T17:29:04.193Z,-5.30
2023-02-07T17:31:36.142Z,-5.60
2023-02-07T17:34:06.339Z,-5.80
2023-02-07T17:36:37.161Z,-5.70
2023-02-07T17:39:07.225Z,-5.50
2023-02-07T17:41:37.396Z,-5.50
2023-02-07T17:44:07.858Z,-5.20
2023-02-07T17:46:40.293Z,-4.90
2023-02-07T17:49:16.681Z,-4.50
2023-02-07T17:51:46.858Z,-4.40
2023-02-07T17:54:17.192Z,-4.30
2023-02-07T17:56:47.260Z,-4.10
2023-02-07T17:59:24.738Z,-3.90
2023-02-07T18:01:56.418Z,-3.90
2023-02-07T18:04:26.428Z,-3.80
2023-02-07T18:06:56.750Z,-3.70
2023-02-07T18:09:29.525Z,-3.70
2023-02-07T18:12:02.335Z,-3.70
2023-02-07T18:14:32.425Z,-3.40
2023-02-07T18:17:06.546Z,-3.30
2023-02-07T18:19:36.618Z,-3.10
2023-02-07T18:22:06.744Z,-2.90
2023-02-07T18:24:36.944Z,-2.90
2023-02-07T18:27:07.381Z,-2.80
2023-02-07T18:29:37.873Z,-3.30
2023-02-07T18:32:09.885Z,-3.40
2023-02-07T18:34:40.266Z,-3.20
2023-02-07T18:37:10.376Z,-3.20
2023-02-07T18:39:40.709Z,-3.10
2023-02-07T18:42:10.906Z,-2.80
2023-02-07T18:44:41.410Z,-2.60
2023-02-07T18:47:13.304Z,-2.70
2023-02-07T18:49:43.349Z,-2.80
2023-02-07T18:52:13.958Z,-3.20
2023-02-07T18:54:45.152Z,-3.50
2023-02-07T18:57:15.438Z,-3.70
2023-02-07T18:59:45.635Z,-3.50
2023-02-07T19:02:17.905Z,-3.80
2023-02-07T19:04:48.330Z,-4.00
2023-02-07T19:07:19.091Z,-4.10
2023-02-07T19:09:49.404Z,-3.90
2023-02-07T19:12:19.623Z,-3.90
2023-02-07T19:14:49.698Z,-4.10
2023-02-07T19:17:24.128Z,-4.40
2023-02-07T19:19:55.082Z,-4.60
2023-02-07T19:22:35.849Z,-4.40
2023-02-07T19:25:07.203Z,-4.30
2023-02-07T19:27:37.369Z,-4.40
2023-02-07T19:30:08.945Z,-4.40
2023-02-07T19:32:41.484Z,-4.60
2023-02-07T19:35:12.345Z,-4.60
2023-02-07T19:37:42.537Z,-4.50
2023-02-07T19:40:13.243Z,-4.60
2023-02-07T19:42:43.354Z,-4.60
2023-02-07T19:45:13.530Z,-4.70
2023-02-07T19:47:45.574Z,-4.80
2023-02-07T19:50:16.076Z,-4.80
2023-02-07T19:52:46.309Z,-4.90
2023-02-07T19:55:16.382Z,-4.90
2023-02-07T19:57:46.526Z,-5.00
2023-02-07T20:00:17.171Z,-5.00
2023-02-07T20:02:49.055Z,-4.90
2023-02-07T20:05:19.680Z,-4.90
2023-02-07T20:07:49.802Z,-4.90
2023-02-07T20:10:20.303Z,-4.90
2023-02-07T20:12:50.526Z,-4.90
2023-02-07T20:15:21.172Z,-5.00
2023-02-07T20:17:54.693Z,-5.10
2023-02-07T20:20:25.842Z,-5.30
2023-02-07T20:22:56.375Z,-5.30
2023-02-07T20:25:27.198Z,-5.30
2023-02-07T20:27:58.084Z,-5.50
2023-02-07T20:30:28.349Z,-5.60
2023-02-07T20:33:01.143Z,-5.70
2023-02-07T20:35:31.359Z,-5.60
2023-02-07T20:38:03.253Z,-5.50
2023-02-07T20:40:33.403Z,-5.50
2023-02-07T20:43:03.649Z,-5.50
2023-02-07T20:45:33.812Z,-5.50
2023-02-07T20:48:05.540Z,-5.70
2023-02-07T20:50:35.969Z,-5.80
2023-02-07T20:53:06.119Z,-5.80
2023-02-07T20:55:36.260Z,-5.90
2023-02-07T20:58:06.350Z,-5.90
2023-02-07T21:00:36.944Z,-5.90
2023-02-07T21:03:08.717Z,-5.90
2023-02-07T21:05:41.038Z,-5.90
2023-02-07T21:08:11.127Z,-5.80
2023-02-07T21:10:41.757Z,-5.80
2023-02-07T21:13:12.034Z,-5.70
2023-02-07T21:15:42.595Z,-5.70
2023-02-07T21:18:15.298Z,-5.70
2023-02-07T21:20:45.677Z,-5.70
2023-02-07T21:23:15.791Z,-5.60
2023-02-07T21:25:45.895Z,-5.60
2023-02-07T21:28:22.901Z,-5.60
2023-02-07T21:30:52.988Z,-5.50
2023-02-07T21:33:24.845Z,-5.50
2023-02-07T21:36:04.174Z,-5.30
2023-02-07T21:38:34.476Z,-5.30
2023-02-07T21:41:06.422Z,-5.40
2023-02-07T21:43:37.176Z,-5.40
2023-02-07T21:46:08.730Z,-5.50
2023-02-07T21:48:42.343Z,-5.50
2023-02-07T21:51:14.371Z,-5.50
2023-02-07T21:53:44.678Z,-5.40
2023-02-07T21:56:16.327Z,-5.50
2023-02-07T21:58:46.723Z,-5.50
2023-02-07T22:01:18.488Z,-5.60
2023-02-07T22:03:52.787Z,-5.60
2023-02-07T22:06:23.445Z,-5.60
2023-02-07T22:08:57.119Z,-5.50
2023-02-07T22:11:28.766Z,-5.50
2023-02-07T22:13:59.282Z,-5.50
2023-02-07T22:16:30.472Z,-5.40
2023-02-07T22:19:03.588Z,-5.40
2023-02-07T22:21:35.972Z,-5.40
2023-02-07T22:24:10.396Z,-5.40
2023-02-07T22:26:40.414Z,-5.30
2023-02-07T22:29:11.734Z,-5.30
2023-02-07T22:31:43.577Z,-5.20
2023-02-07T22:34:17.578Z,-5.20
2023-02-07T22:36:48.150Z,-5.20
2023-02-07T22:39:20.020Z,-5.20
2023-02-07T22:41:50.214Z,-5.10
2023-02-07T22:44:20.783Z,-5.10
2023-02-07T22:46:50.843Z,-5.00
2023-02-07T22:49:23.629Z,-4.90
2023-02-07T22:51:53.858Z,-4.90
2023-02-07T22:54:24.211Z,-4.80
2023-02-07T22:56:54.246Z,-4.80
2023-02-07T22:59:24.327Z,-4.80
2023-02-07T23:01:54.743Z,-4.80
2023-02-07T23:04:26.828Z,-4.70
2023-02-07T23:06:56.905Z,-4.70
2023-02-07T23:09:27.102Z,-4.70
2023-02-07T23:11:57.189Z,-4.70
2023-02-07T23:14:27.300Z,-4.70
2023-02-07T23:16:57.524Z,-4.70
2023-02-07T23:19:35.158Z,-4.70
2023-02-07T23:22:07.263Z,-4.60
2023-02-07T23:24:37.661Z,-4.60
2023-02-07T23:27:07.743Z,-4.60
2023-02-07T23:29:38.228Z,-4.60
2023-02-07T23:32:08.913Z,-4.60
2023-02-07T23:34:40.788Z,-4.60
2023-02-07T23:37:10.853Z,-4.60
2023-02-07T23:39:41.009Z,-4.60
2023-02-07T23:42:11.114Z,-4.60
2023-02-07T23:44:41.201Z,-4.50
2023-02-07T23:47:11.265Z,-4.50
2023-02-07T23:49:43.292Z,-4.50
2023-02-07T23:52:13.904Z,-4.50
2023-02-07T23:54:44.313Z,-4.40
2023-02-07T23:57:14.419Z,-4.40
2023-02-07T23:59:45.632Z,-4.30
